sensor_id;sensor_type;location;lat;lon;timestamp;P1;durP1;ratioP1;P2;durP2;ratioP2
73023;SDS011;72676;47.526;8.538;2023-10-13T00:00:30;10.67;;;4.37;;
73023;SDS011;72676;47.526;8.538;2023-10-13T00:03:00;17.70;;;4.67;;
73023;SDS011;72676;47.526;8.538;2023-10-13T00:05:27;16.77;;;5.30;;
73023;SDS011;72676;47.526;8.538;2023-10-13T00:07:54;10.47;;;4.73;;
73023;SDS011;72676;47.526;8.538;2023-10-13T00:10:21;14.47;;;5.07;;
73023;SDS011;72676;47.526;8.538;2023-10-13T00:12:47;13.13;;;4.70;;
73023;SDS011;72676;47.526;8.538;2023-10-13T00:15:17;15.53;;;4.90;;
73023;SDS011;72676;47.526;8.538;2023-10-13T00:17:44;16.00;;;5.70;;
73023;SDS011;72676;47.526;8.538;2023-10-13T00:20:10;11.40;;;5.10;;
73023;SDS011;72676;47.526;8.538;2023-10-13T00:22:43;10.80;;;4.70;;
73023;SDS011;72676;47.526;8.538;2023-10-13T00:25:10;14.90;;;5.30;;
73023;SDS011;72676;47.526;8.538;2023-10-13T00:27:45;18.40;;;5.77;;
73023;SDS011;72676;47.526;8.538;2023-10-13T00:30:18;14.83;;;5.30;;
73023;SDS011;72676;47.526;8.538;2023-10-13T00:32:50;11.03;;;5.10;;
73023;SDS011;72676;47.526;8.538;2023-10-13T00:35:22;12.83;;;6.50;;
73023;SDS011;72676;47.526;8.538;2023-10-13T00:37:56;17.70;;;8.20;;
73023;SDS011;72676;47.526;8.538;2023-10-13T00:40:24;11.40;;;5.20;;
73023;SDS011;72676;47.526;8.538;2023-10-13T00:42:57;11.20;;;4.50;;
73023;SDS011;72676;47.526;8.538;2023-10-13T00:45:44;11.50;;;4.80;;
73023;SDS011;72676;47.526;8.538;2023-10-13T00:48:21;13.83;;;3.93;;
73023;SDS011;72676;47.526;8.538;2023-10-13T00:50:58;15.23;;;4.47;;
73023;SDS011;72676;47.526;8.538;2023-10-13T00:53:35;9.27;;;4.60;;
73023;SDS011;72676;47.526;8.538;2023-10-13T00:56:10;22.07;;;4.57;;
73023;SDS011;72676;47.526;8.538;2023-10-13T00:58:47;8.43;;;3.80;;
73023;SDS011;72676;47.526;8.538;2023-10-13T01:01:18;12.70;;;4.70;;
73023;SDS011;72676;47.526;8.538;2023-10-13T01:03:49;8.23;;;4.00;;
73023;SDS011;72676;47.526;8.538;2023-10-13T01:06:22;12.30;;;4.73;;
73023;SDS011;72676;47.526;8.538;2023-10-13T01:09:02;12.37;;;4.10;;
73023;SDS011;72676;47.526;8.538;2023-10-13T01:11:46;7.57;;;3.77;;
73023;SDS011;72676;47.526;8.538;2023-10-13T01:14:14;13.50;;;4.10;;
73023;SDS011;72676;47.526;8.538;2023-10-13T01:16:43;13.17;;;4.80;;
73023;SDS011;72676;47.526;8.538;2023-10-13T01:19:14;13.27;;;4.57;;
73023;SDS011;72676;47.526;8.538;2023-10-13T01:21:49;8.50;;;4.63;;
73023;SDS011;72676;47.526;8.538;2023-10-13T01:24:15;13.60;;;4.47;;
73023;SDS011;72676;47.526;8.538;2023-10-13T01:26:45;15.27;;;4.80;;
73023;SDS011;72676;47.526;8.538;2023-10-13T01:29:17;9.30;;;4.00;;
73023;SDS011;72676;47.526;8.538;2023-10-13T01:31:46;7.30;;;4.23;;
73023;SDS011;72676;47.526;8.538;2023-10-13T01:34:17;13.60;;;4.63;;
73023;SDS011;72676;47.526;8.538;2023-10-13T01:36:52;25.70;;;4.40;;
73023;SDS011;72676;47.526;8.538;2023-10-13T01:39:20;12.77;;;4.90;;
73023;SDS011;72676;47.526;8.538;2023-10-13T01:41:48;10.20;;;4.37;;
73023;SDS011;72676;47.526;8.538;2023-10-13T01:44:21;9.80;;;4.30;;
73023;SDS011;72676;47.526;8.538;2023-10-13T01:46:49;17.00;;;4.80;;
73023;SDS011;72676;47.526;8.538;2023-10-13T01:49:15;12.80;;;4.80;;
73023;SDS011;72676;47.526;8.538;2023-10-13T01:51:42;15.43;;;4.80;;
73023;SDS011;72676;47.526;8.538;2023-10-13T01:54:08;11.47;;;4.90;;
73023;SDS011;72676;47.526;8.538;2023-10-13T01:56:39;13.37;;;4.47;;
73023;SDS011;72676;47.526;8.538;2023-10-13T01:59:10;14.50;;;4.50;;
73023;SDS011;72676;47.526;8.538;2023-10-13T02:01:38;10.33;;;3.90;;
73023;SDS011;72676;47.526;8.538;2023-10-13T02:04:06;14.10;;;4.80;;
73023;SDS011;72676;47.526;8.538;2023-10-13T02:06:36;13.17;;;4.30;;
73023;SDS011;72676;47.526;8.538;2023-10-13T02:09:05;12.00;;;5.27;;
73023;SDS011;72676;47.526;8.538;2023-10-13T02:11:51;9.67;;;4.77;;
73023;SDS011;72676;47.526;8.538;2023-10-13T02:14:23;18.07;;;4.70;;
73023;SDS011;72676;47.526;8.538;2023-10-13T02:16:52;16.80;;;4.83;;
73023;SDS011;72676;47.526;8.538;2023-10-13T02:19:22;10.17;;;4.20;;
73023;SDS011;72676;47.526;8.538;2023-10-13T02:21:53;12.50;;;4.50;;
73023;SDS011;72676;47.526;8.538;2023-10-13T02:24:25;9.63;;;4.40;;
73023;SDS011;72676;47.526;8.538;2023-10-13T02:26:56;17.13;;;5.40;;
73023;SDS011;72676;47.526;8.538;2023-10-13T02:29:29;8.80;;;4.17;;
73023;SDS011;72676;47.526;8.538;2023-10-13T02:31:56;8.77;;;4.77;;
73023;SDS011;72676;47.526;8.538;2023-10-13T02:34:23;10.93;;;4.80;;
73023;SDS011;72676;47.526;8.538;2023-10-13T02:36:50;11.17;;;3.80;;
73023;SDS011;72676;47.526;8.538;2023-10-13T02:39:17;12.20;;;4.10;;
73023;SDS011;72676;47.526;8.538;2023-10-13T02:41:51;11.70;;;4.00;;
73023;SDS011;72676;47.526;8.538;2023-10-13T02:44:18;11.67;;;4.17;;
73023;SDS011;72676;47.526;8.538;2023-10-13T02:46:54;11.40;;;3.80;;
73023;SDS011;72676;47.526;8.538;2023-10-13T02:49:25;11.57;;;4.40;;
73023;SDS011;72676;47.526;8.538;2023-10-13T02:51:53;11.00;;;4.60;;
73023;SDS011;72676;47.526;8.538;2023-10-13T02:54:25;29.60;;;4.50;;
73023;SDS011;72676;47.526;8.538;2023-10-13T02:56:57;10.10;;;4.47;;
73023;SDS011;72676;47.526;8.538;2023-10-13T02:59:26;9.80;;;3.93;;
73023;SDS011;72676;47.526;8.538;2023-10-13T03:02:07;10.77;;;4.70;;
73023;SDS011;72676;47.526;8.538;2023-10-13T03:04:55;7.77;;;4.43;;
73023;SDS011;72676;47.526;8.538;2023-10-13T03:07:26;11.73;;;4.97;;
73023;SDS011;72676;47.526;8.538;2023-10-13T03:09:56;12.40;;;4.90;;
73023;SDS011;72676;47.526;8.538;2023-10-13T03:12:27;11.33;;;3.90;;
73023;SDS011;72676;47.526;8.538;2023-10-13T03:15:00;10.50;;;4.10;;
73023;SDS011;72676;47.526;8.538;2023-10-13T03:17:39;9.50;;;3.73;;
73023;SDS011;72676;47.526;8.538;2023-10-13T03:20:10;12.97;;;4.37;;
73023;SDS011;72676;47.526;8.538;2023-10-13T03:22:42;9.93;;;3.60;;
73023;SDS011;72676;47.526;8.538;2023-10-13T03:25:15;11.87;;;4.57;;
73023;SDS011;72676;47.526;8.538;2023-10-13T03:27:55;12.40;;;5.00;;
73023;SDS011;72676;47.526;8.538;2023-10-13T03:30:27;15.13;;;4.30;;
73023;SDS011;72676;47.526;8.538;2023-10-13T03:33:04;12.27;;;4.80;;
73023;SDS011;72676;47.526;8.538;2023-10-13T03:35:34;13.07;;;4.87;;
73023;SDS011;72676;47.526;8.538;2023-10-13T03:38:04;14.73;;;5.40;;
73023;SDS011;72676;47.526;8.538;2023-10-13T03:40:40;18.33;;;5.50;;
73023;SDS011;72676;47.526;8.538;2023-10-13T03:43:07;11.87;;;4.70;;
73023;SDS011;72676;47.526;8.538;2023-10-13T03:45:44;10.10;;;4.77;;
73023;SDS011;72676;47.526;8.538;2023-10-13T03:48:15;13.13;;;4.77;;
73023;SDS011;72676;47.526;8.538;2023-10-13T03:51:02;16.80;;;5.00;;
73023;SDS011;72676;47.526;8.538;2023-10-13T03:53:37;12.80;;;4.40;;
73023;SDS011;72676;47.526;8.538;2023-10-13T03:56:21;11.77;;;3.73;;
73023;SDS011;72676;47.526;8.538;2023-10-13T03:58:58;12.57;;;4.73;;
73023;SDS011;72676;47.526;8.538;2023-10-13T04:01:45;12.53;;;4.73;;
73023;SDS011;72676;47.526;8.538;2023-10-13T04:04:16;12.43;;;3.97;;
73023;SDS011;72676;47.526;8.538;2023-10-13T04:07:01;9.10;;;3.90;;
73023;SDS011;72676;47.526;8.538;2023-10-13T04:09:34;12.30;;;4.57;;
73023;SDS011;72676;47.526;8.538;2023-10-13T04:12:14;15.17;;;4.40;;
73023;SDS011;72676;47.526;8.538;2023-10-13T04:14:59;14.63;;;4.23;;
73023;SDS011;72676;47.526;8.538;2023-10-13T04:17:32;9.90;;;4.20;;
73023;SDS011;72676;47.526;8.538;2023-10-13T04:20:07;15.40;;;5.43;;
73023;SDS011;72676;47.526;8.538;2023-10-13T04:25:17;12.53;;;4.57;;
73023;SDS011;72676;47.526;8.538;2023-10-13T04:33:23;11.77;;;4.23;;
73023;SDS011;72676;47.526;8.538;2023-10-13T04:38:55;13.93;;;3.70;;
73023;SDS011;72676;47.526;8.538;2023-10-13T04:44:15;14.50;;;4.10;;
73023;SDS011;72676;47.526;8.538;2023-10-13T04:47:01;9.67;;;3.87;;
73023;SDS011;72676;47.526;8.538;2023-10-13T04:49:29;11.80;;;4.20;;
73023;SDS011;72676;47.526;8.538;2023-10-13T04:52:12;12.83;;;4.00;;
73023;SDS011;72676;47.526;8.538;2023-10-13T04:54:42;13.43;;;3.80;;
73023;SDS011;72676;47.526;8.538;2023-10-13T04:57:19;10.40;;;4.50;;
73023;SDS011;72676;47.526;8.538;2023-10-13T05:00:08;17.40;;;3.93;;
73023;SDS011;72676;47.526;8.538;2023-10-13T05:02:36;9.90;;;4.73;;
73023;SDS011;72676;47.526;8.538;2023-10-13T05:05:10;9.33;;;3.87;;
73023;SDS011;72676;47.526;8.538;2023-10-13T05:07:45;10.90;;;4.20;;
73023;SDS011;72676;47.526;8.538;2023-10-13T05:10:30;13.33;;;4.67;;
73023;SDS011;72676;47.526;8.538;2023-10-13T05:13:16;13.80;;;4.90;;
73023;SDS011;72676;47.526;8.538;2023-10-13T05:16:02;12.33;;;4.17;;
73023;SDS011;72676;47.526;8.538;2023-10-13T05:18:46;14.97;;;3.83;;
73023;SDS011;72676;47.526;8.538;2023-10-13T05:21:31;11.73;;;4.30;;
73023;SDS011;72676;47.526;8.538;2023-10-13T05:24:17;8.83;;;3.70;;
73023;SDS011;72676;47.526;8.538;2023-10-13T05:27:02;12.90;;;5.00;;
73023;SDS011;72676;47.526;8.538;2023-10-13T05:29:47;8.70;;;4.80;;
73023;SDS011;72676;47.526;8.538;2023-10-13T05:32:32;12.33;;;3.80;;
73023;SDS011;72676;47.526;8.538;2023-10-13T05:35:19;11.03;;;4.20;;
73023;SDS011;72676;47.526;8.538;2023-10-13T05:38:05;18.70;;;5.27;;
73023;SDS011;72676;47.526;8.538;2023-10-13T05:40:51;21.60;;;4.87;;
73023;SDS011;72676;47.526;8.538;2023-10-13T05:43:44;24.93;;;5.60;;
73023;SDS011;72676;47.526;8.538;2023-10-13T05:46:29;10.50;;;4.60;;
73023;SDS011;72676;47.526;8.538;2023-10-13T05:49:06;10.67;;;4.87;;
73023;SDS011;72676;47.526;8.538;2023-10-13T05:51:34;12.43;;;5.00;;
73023;SDS011;72676;47.526;8.538;2023-10-13T05:54:06;10.70;;;4.20;;
73023;SDS011;72676;47.526;8.538;2023-10-13T05:56:42;12.90;;;4.10;;
73023;SDS011;72676;47.526;8.538;2023-10-13T05:59:32;14.67;;;4.90;;
73023;SDS011;72676;47.526;8.538;2023-10-13T06:02:19;17.40;;;5.00;;
73023;SDS011;72676;47.526;8.538;2023-10-13T06:05:08;19.10;;;6.07;;
73023;SDS011;72676;47.526;8.538;2023-10-13T06:07:55;10.37;;;4.37;;
73023;SDS011;72676;47.526;8.538;2023-10-13T06:10:41;15.87;;;4.80;;
73023;SDS011;72676;47.526;8.538;2023-10-13T06:13:26;18.20;;;5.30;;
73023;SDS011;72676;47.526;8.538;2023-10-13T06:16:12;11.97;;;4.70;;
73023;SDS011;72676;47.526;8.538;2023-10-13T06:18:59;15.83;;;5.40;;
73023;SDS011;72676;47.526;8.538;2023-10-13T06:21:45;15.57;;;5.83;;
73023;SDS011;72676;47.526;8.538;2023-10-13T06:24:31;14.93;;;5.73;;
73023;SDS011;72676;47.526;8.538;2023-10-13T06:27:16;17.67;;;6.30;;
73023;SDS011;72676;47.526;8.538;2023-10-13T06:30:01;24.43;;;6.03;;
73023;SDS011;72676;47.526;8.538;2023-10-13T06:32:30;16.20;;;5.53;;
73023;SDS011;72676;47.526;8.538;2023-10-13T06:34:58;17.20;;;5.40;;
73023;SDS011;72676;47.526;8.538;2023-10-13T06:37:31;16.00;;;5.40;;
73023;SDS011;72676;47.526;8.538;2023-10-13T06:40:03;22.40;;;6.40;;
73023;SDS011;72676;47.526;8.538;2023-10-13T06:42:48;19.43;;;4.90;;
73023;SDS011;72676;47.526;8.538;2023-10-13T06:45:15;12.53;;;5.33;;
73023;SDS011;72676;47.526;8.538;2023-10-13T06:47:43;21.10;;;6.77;;
73023;SDS011;72676;47.526;8.538;2023-10-13T06:50:10;13.70;;;5.40;;
73023;SDS011;72676;47.526;8.538;2023-10-13T06:52:46;15.23;;;5.60;;
73023;SDS011;72676;47.526;8.538;2023-10-13T06:55:16;13.87;;;5.30;;
73023;SDS011;72676;47.526;8.538;2023-10-13T06:57:53;20.80;;;6.17;;
73023;SDS011;72676;47.526;8.538;2023-10-13T07:00:26;18.77;;;6.33;;
73023;SDS011;72676;47.526;8.538;2023-10-13T07:02:59;13.20;;;5.57;;
73023;SDS011;72676;47.526;8.538;2023-10-13T07:05:36;22.63;;;5.97;;
73023;SDS011;72676;47.526;8.538;2023-10-13T07:08:10;13.03;;;5.00;;
73023;SDS011;72676;47.526;8.538;2023-10-13T07:10:47;14.23;;;5.40;;
73023;SDS011;72676;47.526;8.538;2023-10-13T07:13:40;16.33;;;5.67;;
73023;SDS011;72676;47.526;8.538;2023-10-13T07:16:13;20.10;;;6.43;;
73023;SDS011;72676;47.526;8.538;2023-10-13T07:18:54;20.67;;;5.57;;
73023;SDS011;72676;47.526;8.538;2023-10-13T07:21:21;17.63;;;5.63;;
73023;SDS011;72676;47.526;8.538;2023-10-13T07:23:59;22.73;;;6.37;;
73023;SDS011;72676;47.526;8.538;2023-10-13T07:26:35;18.77;;;5.90;;
73023;SDS011;72676;47.526;8.538;2023-10-13T07:29:10;19.23;;;8.07;;
73023;SDS011;72676;47.526;8.538;2023-10-13T07:31:37;13.20;;;6.13;;
73023;SDS011;72676;47.526;8.538;2023-10-13T07:34:08;20.17;;;6.00;;
73023;SDS011;72676;47.526;8.538;2023-10-13T07:36:47;18.67;;;7.10;;
73023;SDS011;72676;47.526;8.538;2023-10-13T07:39:15;21.63;;;8.47;;
73023;SDS011;72676;47.526;8.538;2023-10-13T07:41:50;12.03;;;5.30;;
73023;SDS011;72676;47.526;8.538;2023-10-13T07:44:22;12.60;;;4.73;;
73023;SDS011;72676;47.526;8.538;2023-10-13T07:46:53;13.23;;;5.30;;
73023;SDS011;72676;47.526;8.538;2023-10-13T07:49:27;19.63;;;5.87;;
73023;SDS011;72676;47.526;8.538;2023-10-13T07:52:00;12.90;;;4.67;;
73023;SDS011;72676;47.526;8.538;2023-10-13T07:54:44;12.20;;;5.27;;
73023;SDS011;72676;47.526;8.538;2023-10-13T07:57:15;14.83;;;5.13;;
73023;SDS011;72676;47.526;8.538;2023-10-13T07:59:43;12.33;;;4.77;;
73023;SDS011;72676;47.526;8.538;2023-10-13T08:02:18;26.40;;;6.03;;
73023;SDS011;72676;47.526;8.538;2023-10-13T08:05:10;15.40;;;5.40;;
73023;SDS011;72676;47.526;8.538;2023-10-13T08:07:41;15.70;;;4.77;;
73023;SDS011;72676;47.526;8.538;2023-10-13T08:10:08;11.47;;;5.10;;
73023;SDS011;72676;47.526;8.538;2023-10-13T08:12:36;15.37;;;5.60;;
73023;SDS011;72676;47.526;8.538;2023-10-13T08:15:04;11.23;;;5.03;;
73023;SDS011;72676;47.526;8.538;2023-10-13T08:17:48;11.63;;;4.77;;
73023;SDS011;72676;47.526;8.538;2023-10-13T08:20:18;17.00;;;5.70;;
73023;SDS011;72676;47.526;8.538;2023-10-13T08:22:47;17.83;;;5.00;;
73023;SDS011;72676;47.526;8.538;2023-10-13T08:25:13;9.73;;;4.50;;
73023;SDS011;72676;47.526;8.538;2023-10-13T08:28:06;14.47;;;5.10;;
73023;SDS011;72676;47.526;8.538;2023-10-13T08:30:52;15.60;;;5.23;;
73023;SDS011;72676;47.526;8.538;2023-10-13T08:33:20;16.33;;;5.53;;
73023;SDS011;72676;47.526;8.538;2023-10-13T08:35:50;12.77;;;5.10;;
73023;SDS011;72676;47.526;8.538;2023-10-13T08:38:35;16.40;;;4.73;;
73023;SDS011;72676;47.526;8.538;2023-10-13T08:41:16;17.87;;;4.77;;
73023;SDS011;72676;47.526;8.538;2023-10-13T08:43:43;17.97;;;6.20;;
73023;SDS011;72676;47.526;8.538;2023-10-13T08:46:19;12.80;;;5.30;;
73023;SDS011;72676;47.526;8.538;2023-10-13T08:48:55;17.83;;;6.30;;
73023;SDS011;72676;47.526;8.538;2023-10-13T08:51:42;26.23;;;6.47;;
73023;SDS011;72676;47.526;8.538;2023-10-13T08:54:32;25.70;;;6.30;;
73023;SDS011;72676;47.526;8.538;2023-10-13T08:57:04;16.57;;;5.13;;
73023;SDS011;72676;47.526;8.538;2023-10-13T08:59:46;21.30;;;5.50;;
73023;SDS011;72676;47.526;8.538;2023-10-13T09:02:36;12.37;;;4.23;;
73023;SDS011;72676;47.526;8.538;2023-10-13T09:05:21;9.30;;;4.50;;
73023;SDS011;72676;47.526;8.538;2023-10-13T09:08:08;12.93;;;4.43;;
73023;SDS011;72676;47.526;8.538;2023-10-13T09:10:35;16.07;;;5.40;;
73023;SDS011;72676;47.526;8.538;2023-10-13T09:13:11;11.70;;;5.33;;
73023;SDS011;72676;47.526;8.538;2023-10-13T09:15:45;20.17;;;6.37;;
73023;SDS011;72676;47.526;8.538;2023-10-13T09:18:27;17.43;;;6.03;;
73023;SDS011;72676;47.526;8.538;2023-10-13T09:21:12;19.80;;;5.80;;
73023;SDS011;72676;47.526;8.538;2023-10-13T09:24:00;10.47;;;4.83;;
73023;SDS011;72676;47.526;8.538;2023-10-13T09:26:45;14.60;;;4.87;;
73023;SDS011;72676;47.526;8.538;2023-10-13T09:29:16;20.90;;;6.17;;
73023;SDS011;72676;47.526;8.538;2023-10-13T09:31:48;12.07;;;5.50;;
73023;SDS011;72676;47.526;8.538;2023-10-13T09:34:26;13.83;;;4.57;;
73023;SDS011;72676;47.526;8.538;2023-10-13T09:36:59;12.73;;;4.10;;
73023;SDS011;72676;47.526;8.538;2023-10-13T09:39:29;13.90;;;4.93;;
73023;SDS011;72676;47.526;8.538;2023-10-13T09:41:56;17.40;;;4.63;;
73023;SDS011;72676;47.526;8.538;2023-10-13T09:44:26;22.77;;;6.93;;
73023;SDS011;72676;47.526;8.538;2023-10-13T09:47:00;9.70;;;3.80;;
73023;SDS011;72676;47.526;8.538;2023-10-13T09:49:36;14.87;;;5.07;;
73023;SDS011;72676;47.526;8.538;2023-10-13T09:52:13;16.57;;;4.80;;
73023;SDS011;72676;47.526;8.538;2023-10-13T09:57:37;17.53;;;4.30;;
73023;SDS011;72676;47.526;8.538;2023-10-13T10:00:15;11.37;;;4.10;;
73023;SDS011;72676;47.526;8.538;2023-10-13T10:03:14;12.73;;;4.30;;
73023;SDS011;72676;47.526;8.538;2023-10-13T10:06:00;13.00;;;3.97;;
73023;SDS011;72676;47.526;8.538;2023-10-13T10:08:43;11.90;;;4.80;;
73023;SDS011;72676;47.526;8.538;2023-10-13T10:14:10;11.93;;;4.33;;
73023;SDS011;72676;47.526;8.538;2023-10-13T10:19:28;8.63;;;3.80;;
73023;SDS011;72676;47.526;8.538;2023-10-13T10:22:04;10.57;;;4.00;;
73023;SDS011;72676;47.526;8.538;2023-10-13T10:24:43;13.50;;;4.63;;
73023;SDS011;72676;47.526;8.538;2023-10-13T10:27:10;9.33;;;4.10;;
73023;SDS011;72676;47.526;8.538;2023-10-13T10:29:52;11.10;;;3.90;;
73023;SDS011;72676;47.526;8.538;2023-10-13T10:32:20;10.40;;;3.20;;
73023;SDS011;72676;47.526;8.538;2023-10-13T10:34:46;10.07;;;3.90;;
73023;SDS011;72676;47.526;8.538;2023-10-13T10:37:13;9.00;;;3.37;;
73023;SDS011;72676;47.526;8.538;2023-10-13T10:39:42;15.90;;;3.67;;
73023;SDS011;72676;47.526;8.538;2023-10-13T10:42:12;12.90;;;3.73;;
73023;SDS011;72676;47.526;8.538;2023-10-13T10:44:44;10.57;;;3.63;;
73023;SDS011;72676;47.526;8.538;2023-10-13T10:47:14;11.00;;;4.10;;
73023;SDS011;72676;47.526;8.538;2023-10-13T10:49:58;21.47;;;3.80;;
73023;SDS011;72676;47.526;8.538;2023-10-13T10:52:26;16.20;;;3.90;;
73023;SDS011;72676;47.526;8.538;2023-10-13T10:55:00;15.17;;;3.40;;
73023;SDS011;72676;47.526;8.538;2023-10-13T10:57:26;13.07;;;4.20;;
73023;SDS011;72676;47.526;8.538;2023-10-13T10:59:59;11.77;;;3.60;;
73023;SDS011;72676;47.526;8.538;2023-10-13T11:02:38;14.57;;;3.70;;
73023;SDS011;72676;47.526;8.538;2023-10-13T11:05:05;8.30;;;3.50;;
73023;SDS011;72676;47.526;8.538;2023-10-13T11:07:33;10.30;;;4.50;;
73023;SDS011;72676;47.526;8.538;2023-10-13T11:10:07;14.33;;;3.90;;
73023;SDS011;72676;47.526;8.538;2023-10-13T11:12:42;12.93;;;3.80;;
73023;SDS011;72676;47.526;8.538;2023-10-13T11:15:20;8.93;;;3.87;;
73023;SDS011;72676;47.526;8.538;2023-10-13T11:17:49;16.80;;;3.70;;
73023;SDS011;72676;47.526;8.538;2023-10-13T11:20:22;15.73;;;3.40;;
73023;SDS011;72676;47.526;8.538;2023-10-13T11:23:01;9.43;;;3.23;;
73023;SDS011;72676;47.526;8.538;2023-10-13T11:25:31;13.63;;;3.67;;
73023;SDS011;72676;47.526;8.538;2023-10-13T11:28:11;14.47;;;3.50;;
73023;SDS011;72676;47.526;8.538;2023-10-13T11:30:46;13.40;;;4.47;;
73023;SDS011;72676;47.526;8.538;2023-10-13T11:33:17;9.10;;;3.20;;
73023;SDS011;72676;47.526;8.538;2023-10-13T11:35:45;10.00;;;3.60;;
73023;SDS011;72676;47.526;8.538;2023-10-13T11:38:28;7.37;;;3.10;;
73023;SDS011;72676;47.526;8.538;2023-10-13T11:41:11;9.43;;;3.40;;
73023;SDS011;72676;47.526;8.538;2023-10-13T11:43:39;9.00;;;4.27;;
73023;SDS011;72676;47.526;8.538;2023-10-13T11:49:09;15.30;;;3.57;;
73023;SDS011;72676;47.526;8.538;2023-10-13T11:51:40;10.17;;;3.80;;
73023;SDS011;72676;47.526;8.538;2023-10-13T11:54:14;9.97;;;4.07;;
73023;SDS011;72676;47.526;8.538;2023-10-13T11:56:42;9.23;;;3.27;;
73023;SDS011;72676;47.526;8.538;2023-10-13T11:59:08;13.80;;;3.47;;
73023;SDS011;72676;47.526;8.538;2023-10-13T12:01:44;13.13;;;3.60;;
73023;SDS011;72676;47.526;8.538;2023-10-13T12:04:33;13.50;;;4.40;;
73023;SDS011;72676;47.526;8.538;2023-10-13T12:07:04;13.13;;;3.83;;
73023;SDS011;72676;47.526;8.538;2023-10-13T12:09:46;12.17;;;3.57;;
73023;SDS011;72676;47.526;8.538;2023-10-13T12:12:23;18.30;;;3.60;;
73023;SDS011;72676;47.526;8.538;2023-10-13T12:14:54;12.87;;;3.63;;
73023;SDS011;72676;47.526;8.538;2023-10-13T12:17:26;7.13;;;3.67;;
73023;SDS011;72676;47.526;8.538;2023-10-13T12:20:06;17.30;;;3.87;;
73023;SDS011;72676;47.526;8.538;2023-10-13T12:22:36;9.87;;;3.50;;
73023;SDS011;72676;47.526;8.538;2023-10-13T12:25:09;11.07;;;4.13;;
73023;SDS011;72676;47.526;8.538;2023-10-13T12:27:54;5.90;;;3.33;;
73023;SDS011;72676;47.526;8.538;2023-10-13T12:30:24;11.30;;;3.50;;
73023;SDS011;72676;47.526;8.538;2023-10-13T12:33:15;7.00;;;2.93;;
73023;SDS011;72676;47.526;8.538;2023-10-13T12:38:41;11.43;;;3.87;;
73023;SDS011;72676;47.526;8.538;2023-10-13T12:41:15;15.50;;;3.67;;
73023;SDS011;72676;47.526;8.538;2023-10-13T12:44:05;8.53;;;3.20;;
73023;SDS011;72676;47.526;8.538;2023-10-13T12:46:58;17.57;;;3.70;;
73023;SDS011;72676;47.526;8.538;2023-10-13T12:49:44;11.83;;;4.03;;
73023;SDS011;72676;47.526;8.538;2023-10-13T12:52:13;10.47;;;3.53;;
73023;SDS011;72676;47.526;8.538;2023-10-13T12:54:43;7.80;;;3.67;;
73023;SDS011;72676;47.526;8.538;2023-10-13T12:57:14;9.70;;;3.43;;
73023;SDS011;72676;47.526;8.538;2023-10-13T12:59:42;10.57;;;3.00;;
73023;SDS011;72676;47.526;8.538;2023-10-13T13:02:09;11.40;;;4.27;;
73023;SDS011;72676;47.526;8.538;2023-10-13T13:04:41;12.10;;;3.60;;
73023;SDS011;72676;47.526;8.538;2023-10-13T13:07:10;9.23;;;3.10;;
73023;SDS011;72676;47.526;8.538;2023-10-13T13:09:40;14.00;;;3.73;;
73023;SDS011;72676;47.526;8.538;2023-10-13T13:12:07;11.20;;;3.73;;
73023;SDS011;72676;47.526;8.538;2023-10-13T13:14:34;13.63;;;3.10;;
73023;SDS011;72676;47.526;8.538;2023-10-13T13:17:00;13.83;;;3.30;;
73023;SDS011;72676;47.526;8.538;2023-10-13T13:19:33;11.93;;;4.63;;
73023;SDS011;72676;47.526;8.538;2023-10-13T13:22:07;11.60;;;3.90;;
73023;SDS011;72676;47.526;8.538;2023-10-13T13:24:41;13.97;;;3.57;;
73023;SDS011;72676;47.526;8.538;2023-10-13T13:27:15;8.20;;;3.10;;
73023;SDS011;72676;47.526;8.538;2023-10-13T13:29:48;13.00;;;3.50;;
73023;SDS011;72676;47.526;8.538;2023-10-13T13:32:15;11.73;;;3.83;;
73023;SDS011;72676;47.526;8.538;2023-10-13T13:34:51;10.07;;;3.20;;
73023;SDS011;72676;47.526;8.538;2023-10-13T13:37:25;9.43;;;4.00;;
73023;SDS011;72676;47.526;8.538;2023-10-13T13:39:55;12.03;;;3.40;;
73023;SDS011;72676;47.526;8.538;2023-10-13T13:42:21;14.57;;;3.57;;
73023;SDS011;72676;47.526;8.538;2023-10-13T13:44:48;6.33;;;3.40;;
73023;SDS011;72676;47.526;8.538;2023-10-13T13:47:14;10.63;;;3.97;;
73023;SDS011;72676;47.526;8.538;2023-10-13T13:49:43;13.83;;;3.90;;
73023;SDS011;72676;47.526;8.538;2023-10-13T13:52:18;7.97;;;3.23;;
73023;SDS011;72676;47.526;8.538;2023-10-13T13:54:47;8.80;;;3.40;;
73023;SDS011;72676;47.526;8.538;2023-10-13T13:57:14;8.53;;;3.83;;
73023;SDS011;72676;47.526;8.538;2023-10-13T13:59:41;9.27;;;3.97;;
73023;SDS011;72676;47.526;8.538;2023-10-13T14:02:11;8.50;;;3.30;;
73023;SDS011;72676;47.526;8.538;2023-10-13T14:04:47;6.67;;;3.60;;
73023;SDS011;72676;47.526;8.538;2023-10-13T14:07:17;8.10;;;3.20;;
73023;SDS011;72676;47.526;8.538;2023-10-13T14:09:46;7.93;;;3.30;;
73023;SDS011;72676;47.526;8.538;2023-10-13T14:12:18;10.37;;;4.03;;
73023;SDS011;72676;47.526;8.538;2023-10-13T14:15:09;6.00;;;3.30;;
73023;SDS011;72676;47.526;8.538;2023-10-13T14:17:50;8.03;;;3.43;;
73023;SDS011;72676;47.526;8.538;2023-10-13T14:20:16;12.03;;;3.70;;
73023;SDS011;72676;47.526;8.538;2023-10-13T14:22:46;9.27;;;3.37;;
73023;SDS011;72676;47.526;8.538;2023-10-13T14:25:14;9.73;;;3.60;;
73023;SDS011;72676;47.526;8.538;2023-10-13T14:27:41;11.73;;;3.57;;
73023;SDS011;72676;47.526;8.538;2023-10-13T14:30:08;16.07;;;3.40;;
73023;SDS011;72676;47.526;8.538;2023-10-13T14:32:35;9.87;;;3.47;;
73023;SDS011;72676;47.526;8.538;2023-10-13T14:35:06;11.00;;;3.23;;
73023;SDS011;72676;47.526;8.538;2023-10-13T14:37:42;9.67;;;3.70;;
73023;SDS011;72676;47.526;8.538;2023-10-13T14:40:09;10.00;;;3.60;;
73023;SDS011;72676;47.526;8.538;2023-10-13T14:42:40;12.00;;;3.90;;
73023;SDS011;72676;47.526;8.538;2023-10-13T14:45:07;11.93;;;4.43;;
73023;SDS011;72676;47.526;8.538;2023-10-13T14:47:40;9.53;;;3.20;;
73023;SDS011;72676;47.526;8.538;2023-10-13T14:50:07;8.50;;;3.20;;
73023;SDS011;72676;47.526;8.538;2023-10-13T14:52:40;16.70;;;3.60;;
73023;SDS011;72676;47.526;8.538;2023-10-13T14:55:07;12.00;;;3.57;;
73023;SDS011;72676;47.526;8.538;2023-10-13T14:57:45;9.40;;;3.80;;
73023;SDS011;72676;47.526;8.538;2023-10-13T15:00:13;15.53;;;3.80;;
73023;SDS011;72676;47.526;8.538;2023-10-13T15:02:43;11.93;;;3.67;;
73023;SDS011;72676;47.526;8.538;2023-10-13T15:05:10;8.13;;;3.60;;
73023;SDS011;72676;47.526;8.538;2023-10-13T15:07:45;16.30;;;3.83;;
73023;SDS011;72676;47.526;8.538;2023-10-13T15:10:13;11.63;;;4.00;;
73023;SDS011;72676;47.526;8.538;2023-10-13T15:12:43;8.57;;;3.43;;
73023;SDS011;72676;47.526;8.538;2023-10-13T15:15:12;13.97;;;4.00;;
73023;SDS011;72676;47.526;8.538;2023-10-13T15:17:48;11.70;;;3.20;;
73023;SDS011;72676;47.526;8.538;2023-10-13T15:20:16;12.53;;;3.57;;
73023;SDS011;72676;47.526;8.538;2023-10-13T15:22:43;6.63;;;3.13;;
73023;SDS011;72676;47.526;8.538;2023-10-13T15:25:16;8.47;;;3.20;;
73023;SDS011;72676;47.526;8.538;2023-10-13T15:27:58;8.50;;;3.07;;
73023;SDS011;72676;47.526;8.538;2023-10-13T15:30:29;15.67;;;4.10;;
73023;SDS011;72676;47.526;8.538;2023-10-13T15:33:12;8.60;;;3.30;;
73023;SDS011;72676;47.526;8.538;2023-10-13T15:35:40;12.20;;;3.60;;
73023;SDS011;72676;47.526;8.538;2023-10-13T15:38:09;14.80;;;4.00;;
73023;SDS011;72676;47.526;8.538;2023-10-13T15:40:41;13.83;;;4.00;;
73023;SDS011;72676;47.526;8.538;2023-10-13T15:43:11;9.57;;;3.40;;
73023;SDS011;72676;47.526;8.538;2023-10-13T15:45:39;8.33;;;3.57;;
73023;SDS011;72676;47.526;8.538;2023-10-13T15:48:06;11.50;;;3.40;;